createdAt,value
2017-09-30T00:01:21.573Z,22.60
2017-09-30T00:03:49.884Z,23.67
2017-09-30T00:06:18.210Z,23.07
2017-09-30T00:08:47.284Z,23.63
2017-09-30T00:11:15.613Z,23.40
2017-09-30T00:13:43.923Z,25.33
2017-09-30T00:16:12.361Z,25.83
2017-09-30T00:18:40.667Z,25.80
2017-09-30T00:21:09.005Z,26.00
2017-09-30T00:23:38.082Z,24.77
2017-09-30T00:26:07.169Z,25.30
2017-09-30T00:28:35.490Z,25.27
2017-09-30T00:31:03.828Z,24.93
2017-09-30T00:33:32.141Z,25.50
2017-09-30T00:36:00.641Z,26.77
2017-09-30T00:38:28.980Z,26.73
2017-09-30T00:40:58.066Z,31.03
2017-09-30T00:43:27.170Z,27.23
2017-09-30T00:45:56.264Z,28.03
2017-09-30T00:48:25.360Z,29.17
2017-09-30T00:50:54.445Z,32.10
2017-09-30T00:53:22.790Z,38.20
2017-09-30T00:55:51.113Z,38.97
2017-09-30T00:58:20.207Z,36.07
2017-09-30T01:00:49.301Z,36.20
2017-09-30T01:03:18.385Z,35.53
2017-09-30T01:05:47.493Z,33.90
2017-09-30T01:08:16.574Z,35.83
2017-09-30T01:10:45.682Z,36.00
2017-09-30T01:13:14.781Z,34.90
2017-09-30T01:15:43.903Z,34.30
2017-09-30T01:18:12.218Z,32.80
2017-09-30T01:20:40.528Z,33.77
2017-09-30T01:23:09.625Z,34.40
2017-09-30T01:25:38.701Z,34.40
2017-09-30T01:28:07.027Z,37.67
2017-09-30T01:30:35.338Z,36.13
2017-09-30T01:33:04.431Z,39.03
2017-09-30T01:35:32.741Z,36.27
2017-09-30T01:38:01.869Z,35.87
2017-09-30T01:40:30.202Z,36.27
2017-09-30T01:42:58.525Z,38.50
2017-09-30T01:45:26.848Z,36.17
2017-09-30T01:50:28.644Z,38.50
2017-09-30T01:52:57.724Z,33.13
2017-09-30T01:55:26.060Z,35.67
2017-09-30T01:57:54.372Z,38.40
2017-09-30T02:00:22.690Z,37.27
2017-09-30T02:02:51.766Z,39.50
2017-09-30T02:05:20.110Z,36.37
2017-09-30T02:07:48.424Z,36.07
2017-09-30T02:10:17.516Z,33.60
2017-09-30T02:12:46.610Z,34.90
2017-09-30T02:15:14.945Z,34.73
2017-09-30T02:17:44.049Z,34.87
2017-09-30T02:20:12.361Z,38.37
2017-09-30T02:22:40.761Z,36.90
2017-09-30T02:25:09.071Z,41.67
2017-09-30T02:27:37.432Z,37.07
2017-09-30T02:30:05.738Z,37.43
2017-09-30T02:32:34.048Z,45.97
2017-09-30T02:35:02.386Z,40.97
2017-09-30T02:37:30.701Z,43.00
2017-09-30T02:39:59.048Z,42.93
2017-09-30T02:42:27.375Z,41.80
2017-09-30T02:44:56.478Z,41.97
2017-09-30T02:47:24.786Z,41.30
2017-09-30T02:49:53.127Z,40.43
2017-09-30T02:52:22.213Z,41.60
2017-09-30T02:54:50.550Z,40.47
2017-09-30T02:57:18.882Z,41.83
2017-09-30T02:59:47.235Z,42.77
2017-09-30T03:02:15.559Z,44.80
2017-09-30T03:04:43.876Z,44.60
2017-09-30T03:07:12.218Z,43.20
2017-09-30T03:09:40.531Z,43.60
2017-09-30T03:12:08.862Z,38.73
2017-09-30T03:14:37.181Z,44.20
2017-09-30T03:17:07.018Z,41.60
2017-09-30T03:19:35.330Z,43.10
2017-09-30T03:22:03.651Z,40.83
2017-09-30T03:24:31.978Z,39.53
2017-09-30T03:27:00.338Z,41.07
2017-09-30T03:29:29.427Z,42.40
2017-09-30T03:31:58.507Z,42.27
2017-09-30T03:34:26.830Z,42.27
2017-09-30T03:36:55.146Z,44.43
2017-09-30T03:39:23.479Z,45.70
2017-09-30T03:41:51.806Z,41.90
2017-09-30T03:44:20.133Z,44.40
2017-09-30T03:46:48.472Z,45.30
2017-09-30T03:49:16.793Z,46.77
2017-09-30T03:51:45.110Z,44.97
2017-09-30T03:54:13.447Z,45.00
2017-09-30T03:56:41.786Z,45.50
2017-09-30T03:59:10.104Z,45.10
2017-09-30T04:01:38.434Z,46.33
2017-09-30T04:04:06.745Z,47.67
2017-09-30T04:06:35.841Z,47.87
2017-09-30T04:09:04.933Z,46.80
2017-09-30T04:11:34.030Z,48.10
2017-09-30T04:14:03.123Z,48.40
2017-09-30T04:16:32.206Z,50.10
2017-09-30T04:19:01.282Z,46.80
2017-09-30T04:21:29.634Z,49.97
2017-09-30T04:23:57.959Z,49.93
2017-09-30T04:26:27.082Z,46.20
2017-09-30T04:28:55.410Z,47.13
2017-09-30T04:31:23.729Z,46.10
2017-09-30T04:33:52.070Z,44.70
2017-09-30T04:36:20.386Z,45.60
2017-09-30T04:38:48.746Z,44.63
2017-09-30T04:41:17.842Z,42.50
2017-09-30T04:43:46.943Z,44.27
2017-09-30T04:46:16.033Z,45.33
2017-09-30T04:48:45.127Z,42.70
2017-09-30T04:51:13.429Z,42.13
2017-09-30T04:53:41.773Z,44.87
2017-09-30T04:56:10.100Z,46.20
2017-09-30T04:58:38.409Z,45.40
2017-09-30T05:01:06.736Z,46.83
2017-09-30T05:03:35.062Z,48.23
2017-09-30T05:06:03.393Z,48.90
2017-09-30T05:08:31.723Z,44.67
2017-09-30T05:11:00.042Z,46.10
2017-09-30T05:13:28.373Z,48.17
2017-09-30T05:15:56.732Z,46.53
2017-09-30T05:18:25.041Z,46.67
2017-09-30T05:20:53.358Z,50.00
2017-09-30T05:23:21.681Z,45.30
2017-09-30T05:25:50.002Z,48.17
2017-09-30T05:28:18.334Z,46.60
2017-09-30T05:30:46.670Z,43.87
2017-09-30T05:33:15.010Z,49.87
2017-09-30T05:35:43.336Z,43.30
2017-09-30T05:38:11.661Z,46.20
2017-09-30T05:40:39.979Z,47.87
2017-09-30T05:43:08.342Z,45.57
2017-09-30T05:45:36.674Z,49.50
2017-09-30T05:48:04.990Z,46.03
2017-09-30T05:50:34.085Z,45.37
2017-09-30T05:53:03.174Z,44.20
2017-09-30T05:55:31.490Z,41.40
2017-09-30T05:57:59.805Z,43.13
2017-09-30T06:00:28.130Z,41.47
2017-09-30T06:02:56.460Z,39.70
2017-09-30T06:05:24.785Z,40.20
2017-09-30T06:07:53.114Z,44.03
2017-09-30T06:10:21.527Z,41.83
2017-09-30T06:12:50.630Z,37.70
2017-09-30T06:15:19.746Z,36.23
2017-09-30T06:17:48.064Z,36.70
2017-09-30T06:20:16.382Z,36.73
2017-09-30T06:22:45.470Z,35.63
2017-09-30T06:25:13.855Z,35.53
2017-09-30T06:27:42.929Z,36.80
2017-09-30T06:30:11.245Z,34.70
2017-09-30T06:32:39.562Z,34.73
2017-09-30T06:35:07.874Z,34.87
2017-09-30T06:37:36.960Z,35.17
2017-09-30T06:40:05.270Z,37.20
2017-09-30T06:42:33.590Z,34.23
2017-09-30T06:45:01.899Z,34.17
2017-09-30T06:47:31.008Z,33.60
2017-09-30T06:49:59.327Z,35.03
2017-09-30T06:52:27.641Z,31.87
2017-09-30T06:54:55.967Z,34.50
2017-09-30T06:57:24.286Z,31.97
2017-09-30T06:59:52.654Z,33.03
2017-09-30T07:02:20.974Z,31.80
2017-09-30T07:04:50.062Z,32.20
2017-09-30T07:07:19.174Z,32.30
2017-09-30T07:09:47.509Z,30.20
2017-09-30T07:12:15.820Z,30.93
2017-09-30T07:14:44.154Z,31.33
2017-09-30T07:17:12.481Z,30.37
2017-09-30T07:19:40.790Z,30.73
2017-09-30T07:22:09.108Z,31.07
2017-09-30T07:24:37.426Z,31.67
2017-09-30T07:27:07.273Z,31.23
2017-09-30T07:29:35.577Z,30.47
2017-09-30T07:32:03.930Z,30.50
2017-09-30T07:34:32.254Z,29.77
2017-09-30T07:37:01.324Z,28.90
2017-09-30T07:39:29.658Z,29.57
2017-09-30T07:41:57.978Z,29.17
2017-09-30T07:44:26.300Z,29.40
2017-09-30T07:46:54.613Z,29.10
2017-09-30T07:49:22.965Z,29.20
2017-09-30T07:51:51.302Z,29.00
2017-09-30T07:54:20.410Z,27.60
2017-09-30T07:56:49.477Z,29.23
2017-09-30T07:59:17.801Z,29.27
2017-09-30T08:01:46.126Z,28.90
2017-09-30T08:04:14.430Z,28.87
2017-09-30T08:06:43.515Z,28.60
2017-09-30T08:09:12.630Z,28.23
2017-09-30T08:11:41.718Z,24.67
2017-09-30T08:14:10.810Z,25.57
2017-09-30T08:16:39.921Z,27.17
2017-09-30T08:19:08.231Z,25.70
2017-09-30T08:21:36.549Z,25.03
2017-09-30T08:24:05.640Z,26.70
2017-09-30T08:26:33.965Z,24.40
2017-09-30T08:29:02.310Z,24.80
2017-09-30T08:31:31.384Z,24.70
2017-09-30T08:33:59.705Z,22.93
2017-09-30T08:36:28.015Z,23.97
2017-09-30T08:38:56.358Z,22.60
2017-09-30T08:41:24.671Z,22.23
2017-09-30T08:43:52.996Z,24.47
2017-09-30T08:46:21.423Z,21.97
2017-09-30T08:48:49.800Z,21.53
2017-09-30T08:51:18.167Z,21.17
2017-09-30T08:53:46.579Z,21.77
2017-09-30T08:56:14.942Z,22.43
2017-09-30T08:58:43.315Z,21.73
2017-09-30T09:01:11.674Z,21.33
2017-09-30T09:03:39.995Z,22.97
2017-09-30T09:06:08.389Z,21.40
2017-09-30T09:08:37.506Z,22.23
2017-09-30T09:11:05.884Z,23.17
2017-09-30T09:13:35.275Z,22.37
2017-09-30T09:16:03.622Z,21.00
2017-09-30T09:18:31.968Z,22.63
2017-09-30T09:21:00.302Z,22.30
2017-09-30T09:23:28.666Z,20.50
2017-09-30T09:26:01.474Z,23.30
2017-09-30T09:28:29.830Z,22.80
2017-09-30T09:30:58.160Z,21.00
2017-09-30T09:33:26.485Z,20.73
2017-09-30T09:35:54.810Z,20.90
2017-09-30T09:38:23.140Z,21.93
2017-09-30T09:40:51.513Z,19.00
2017-09-30T09:43:19.850Z,21.87
2017-09-30T09:45:48.331Z,18.57
2017-09-30T09:48:16.771Z,21.20
2017-09-30T09:50:45.926Z,19.33
2017-09-30T09:53:14.246Z,19.57
2017-09-30T09:55:43.329Z,19.57
2017-09-30T09:58:11.658Z,16.50
2017-09-30T10:00:40.032Z,18.67
2017-09-30T10:03:08.342Z,17.93
2017-09-30T10:05:36.680Z,19.70
2017-09-30T10:08:05.001Z,17.97
2017-09-30T10:10:33.322Z,19.50
2017-09-30T10:13:02.409Z,21.87
2017-09-30T10:15:31.490Z,22.00
2017-09-30T10:17:59.819Z,21.10
2017-09-30T10:20:28.128Z,23.57
2017-09-30T10:22:56.479Z,22.90
2017-09-30T10:25:24.798Z,21.27
2017-09-30T10:27:53.102Z,22.53
2017-09-30T10:30:21.432Z,21.10
2017-09-30T10:32:49.767Z,21.20
2017-09-30T10:35:18.099Z,23.33
2017-09-30T10:37:46.431Z,21.60
2017-09-30T10:40:14.751Z,22.40
2017-09-30T10:42:43.080Z,22.27
2017-09-30T10:45:11.492Z,22.23
2017-09-30T10:47:39.817Z,20.00
2017-09-30T10:50:08.926Z,21.90
2017-09-30T10:52:37.271Z,22.63
2017-09-30T10:55:05.581Z,20.80
2017-09-30T10:57:33.908Z,21.67
2017-09-30T11:00:02.228Z,22.40
2017-09-30T11:02:30.564Z,20.90
2017-09-30T11:04:58.903Z,23.20
2017-09-30T11:07:27.221Z,22.20
2017-09-30T11:09:55.542Z,25.60
2017-09-30T11:12:23.890Z,23.07
2017-09-30T11:14:52.197Z,23.67
2017-09-30T11:17:21.282Z,21.30
2017-09-30T11:19:50.385Z,24.17
2017-09-30T11:22:19.468Z,23.50
2017-09-30T11:24:48.545Z,21.30
2017-09-30T11:27:16.860Z,23.87
2017-09-30T11:29:45.178Z,23.13
2017-09-30T11:32:13.503Z,22.43
2017-09-30T11:34:42.623Z,22.40
2017-09-30T11:37:10.932Z,22.80
2017-09-30T11:39:39.249Z,22.20
2017-09-30T11:42:08.345Z,22.17
2017-09-30T11:44:37.426Z,22.27
2017-09-30T11:47:07.251Z,22.53
2017-09-30T11:49:36.341Z,20.50
2017-09-30T11:52:04.662Z,21.23
2017-09-30T11:54:32.969Z,19.17
2017-09-30T11:57:01.298Z,18.70
2017-09-30T11:59:29.611Z,19.70
2017-09-30T12:01:57.957Z,18.10
2017-09-30T12:04:26.271Z,19.33
2017-09-30T12:06:54.729Z,19.40
2017-09-30T12:09:23.050Z,20.43
2017-09-30T12:11:51.373Z,20.13
2017-09-30T12:14:19.698Z,20.00
2017-09-30T12:16:48.007Z,18.40
2017-09-30T12:19:17.089Z,19.00
2017-09-30T12:21:46.173Z,20.30
2017-09-30T12:24:14.521Z,18.50
2017-09-30T12:26:42.836Z,17.40
2017-09-30T12:29:11.145Z,18.07
2017-09-30T12:31:39.474Z,17.40
2017-09-30T12:34:07.782Z,19.20
2017-09-30T12:36:36.866Z,18.70
2017-09-30T12:39:05.179Z,19.20
2017-09-30T12:41:33.505Z,21.70
2017-09-30T12:44:01.847Z,20.50
2017-09-30T12:46:30.220Z,21.37
2017-09-30T12:48:58.530Z,22.40
2017-09-30T12:51:26.840Z,21.93
2017-09-30T12:53:55.946Z,23.07
2017-09-30T12:56:25.029Z,22.03
2017-09-30T12:58:54.113Z,23.70
2017-09-30T13:01:22.429Z,21.40
2017-09-30T13:03:50.755Z,23.30
2017-09-30T13:06:19.077Z,23.87
2017-09-30T13:08:47.442Z,21.50
2017-09-30T13:11:16.671Z,24.50
2017-09-30T13:13:44.982Z,27.10
2017-09-30T13:16:13.306Z,25.53
2017-09-30T13:18:41.606Z,25.90
2017-09-30T13:21:09.927Z,27.37
2017-09-30T13:23:38.254Z,25.33
2017-09-30T13:26:06.578Z,24.40
2017-09-30T13:31:32.650Z,23.63
2017-09-30T13:34:01.718Z,25.70
2017-09-30T13:36:30.030Z,25.07
2017-09-30T13:38:59.111Z,25.40
2017-09-30T13:41:28.196Z,27.07
2017-09-30T13:43:56.555Z,26.77
2017-09-30T13:49:00.174Z,24.90
2017-09-30T13:51:28.526Z,25.27
2017-09-30T13:53:56.838Z,23.77
2017-09-30T13:56:25.141Z,25.80
2017-09-30T13:58:54.233Z,25.40
2017-09-30T14:01:23.301Z,21.97
2017-09-30T14:03:51.910Z,26.10
2017-09-30T14:06:20.976Z,24.30
2017-09-30T14:08:49.305Z,24.80
2017-09-30T14:11:17.617Z,26.20
2017-09-30T14:13:46.834Z,27.13
2017-09-30T14:16:15.141Z,27.80
2017-09-30T14:18:44.257Z,28.93
2017-09-30T14:21:12.581Z,43.70
2017-09-30T14:23:40.922Z,67.20
2017-09-30T14:26:09.597Z,59.97
2017-09-30T14:28:37.905Z,42.73
2017-09-30T14:31:06.227Z,34.37
2017-09-30T14:33:35.292Z,31.47
2017-09-30T14:36:03.618Z,30.10
2017-09-30T14:38:31.925Z,28.13
2017-09-30T14:41:00.277Z,27.10
2017-09-30T14:43:28.586Z,25.57
2017-09-30T14:45:56.894Z,24.37
2017-09-30T14:48:25.305Z,25.43
2017-09-30T14:50:53.619Z,24.43
2017-09-30T14:53:21.946Z,25.17
2017-09-30T14:55:51.031Z,25.07
2017-09-30T14:58:19.359Z,24.77
2017-09-30T15:00:47.681Z,25.07
2017-09-30T15:03:15.994Z,25.03
2017-09-30T15:05:44.297Z,23.50
2017-09-30T15:08:12.616Z,21.17
2017-09-30T15:10:40.941Z,20.90
2017-09-30T15:13:09.263Z,18.00
2017-09-30T15:15:37.585Z,18.47
2017-09-30T15:18:05.926Z,18.60
2017-09-30T15:20:34.264Z,17.53
2017-09-30T15:23:02.568Z,16.30
2017-09-30T15:25:30.897Z,17.17
2017-09-30T15:27:59.227Z,17.30
2017-09-30T15:30:27.559Z,15.87
2017-09-30T15:32:55.878Z,16.97
2017-09-30T15:35:24.199Z,16.50
2017-09-30T15:37:52.507Z,17.23
2017-09-30T15:40:20.850Z,17.43
2017-09-30T15:42:49.162Z,16.20
2017-09-30T15:45:17.475Z,15.30
2017-09-30T15:47:45.793Z,14.60
2017-09-30T15:50:14.105Z,15.70
2017-09-30T15:52:43.197Z,14.40
2017-09-30T15:55:11.520Z,15.40
2017-09-30T15:57:40.606Z,14.30
2017-09-30T16:00:09.898Z,14.13
2017-09-30T16:02:38.990Z,13.50
2017-09-30T16:05:07.330Z,14.57
2017-09-30T16:07:35.661Z,13.10
2017-09-30T16:10:03.982Z,14.40
2017-09-30T16:12:32.342Z,13.13
2017-09-30T16:15:00.673Z,14.90
2017-09-30T16:17:28.985Z,13.93
2017-09-30T16:19:58.058Z,15.40
2017-09-30T16:22:27.306Z,13.03
2017-09-30T16:24:55.626Z,13.80
2017-09-30T16:27:23.957Z,13.17
2017-09-30T16:29:52.267Z,14.07
2017-09-30T16:32:20.596Z,13.57
2017-09-30T16:34:48.988Z,13.60
2017-09-30T16:37:17.301Z,12.90
2017-09-30T16:39:45.623Z,13.30
2017-09-30T16:42:14.710Z,13.40
2017-09-30T16:44:43.814Z,12.87
2017-09-30T16:47:12.895Z,13.77
2017-09-30T16:49:41.969Z,13.97
2017-09-30T16:52:10.294Z,12.80
2017-09-30T16:54:38.612Z,12.80
2017-09-30T16:57:07.142Z,13.30
2017-09-30T16:59:36.242Z,15.00
2017-09-30T17:02:04.570Z,16.07
2017-09-30T17:04:32.870Z,14.13
2017-09-30T17:07:01.191Z,16.40
2017-09-30T17:09:29.502Z,15.30
2017-09-30T17:11:57.874Z,13.40
2017-09-30T17:14:26.181Z,12.57
2017-09-30T17:16:54.493Z,12.93
2017-09-30T17:19:22.850Z,12.43
2017-09-30T17:21:51.936Z,11.50
2017-09-30T17:24:25.978Z,12.57
2017-09-30T17:26:54.312Z,12.60
2017-09-30T17:29:22.621Z,12.90
2017-09-30T17:31:50.930Z,11.13
2017-09-30T17:34:19.250Z,10.60
2017-09-30T17:36:47.562Z,12.20
2017-09-30T17:39:15.888Z,11.20
2017-09-30T17:41:44.198Z,12.20
2017-09-30T17:44:13.319Z,11.87
2017-09-30T17:46:41.630Z,13.10
2017-09-30T17:49:09.947Z,12.17
2017-09-30T17:51:39.036Z,11.50
2017-09-30T17:54:08.110Z,10.90
2017-09-30T17:56:36.434Z,10.00
2017-09-30T17:59:04.743Z,11.57
2017-09-30T18:01:33.059Z,11.20
2017-09-30T18:04:02.138Z,11.70
2017-09-30T18:06:30.463Z,11.53
2017-09-30T18:08:58.778Z,10.47
2017-09-30T18:11:27.089Z,12.03
2017-09-30T18:13:56.183Z,12.50
2017-09-30T18:16:25.262Z,11.43
2017-09-30T18:18:53.595Z,11.23
2017-09-30T18:21:21.931Z,10.77
2017-09-30T18:23:51.024Z,11.40
2017-09-30T18:26:19.334Z,11.20
2017-09-30T18:28:47.669Z,10.87
2017-09-30T18:31:16.818Z,10.67
2017-09-30T18:33:45.133Z,11.50
2017-09-30T18:36:13.458Z,11.13
2017-09-30T18:38:41.767Z,11.27
2017-09-30T18:41:10.114Z,11.17
2017-09-30T18:43:38.421Z,11.70
2017-09-30T18:46:06.750Z,10.47
2017-09-30T18:48:35.848Z,10.40
2017-09-30T18:51:04.172Z,10.63
2017-09-30T18:53:32.515Z,10.63
2017-09-30T18:56:00.827Z,11.20
2017-09-30T18:58:29.182Z,12.07
2017-09-30T19:00:57.504Z,10.30
2017-09-30T19:03:25.829Z,11.97
2017-09-30T19:05:54.150Z,11.43
2017-09-30T19:08:22.479Z,10.43
2017-09-30T19:10:50.794Z,11.97
2017-09-30T19:13:19.117Z,10.57
2017-09-30T19:15:48.212Z,10.20
2017-09-30T19:18:17.327Z,11.40
2017-09-30T19:20:45.649Z,11.40
2017-09-30T19:23:13.957Z,11.30
2017-09-30T19:25:42.285Z,11.97
2017-09-30T19:28:10.608Z,12.03
2017-09-30T19:30:38.944Z,10.73
2017-09-30T19:33:07.254Z,12.20
2017-09-30T19:35:35.567Z,11.00
2017-09-30T19:38:04.662Z,11.07
2017-09-30T19:40:32.993Z,12.37
2017-09-30T19:43:01.352Z,11.00
2017-09-30T19:45:29.658Z,11.90
2017-09-30T19:47:58.002Z,11.00
2017-09-30T19:50:26.312Z,11.37
2017-09-30T19:52:54.633Z,11.47
2017-09-30T19:55:22.946Z,11.60
2017-09-30T19:57:51.265Z,11.93
2017-09-30T20:00:19.617Z,11.87
2017-09-30T20:02:47.939Z,13.47
2017-09-30T20:05:17.078Z,13.37
2017-09-30T20:07:45.390Z,12.80
2017-09-30T20:10:13.705Z,13.27
2017-09-30T20:12:42.020Z,12.77
2017-09-30T20:15:10.358Z,12.97
2017-09-30T20:17:39.523Z,12.63
2017-09-30T20:20:08.642Z,12.87
2017-09-30T20:22:36.962Z,12.40
2017-09-30T20:25:06.042Z,14.10
2017-09-30T20:27:34.364Z,13.00
2017-09-30T20:30:02.668Z,14.50
2017-09-30T20:32:31.006Z,14.10
2017-09-30T20:34:59.309Z,15.70
2017-09-30T20:37:28.400Z,17.63
2017-09-30T20:39:57.473Z,17.40
2017-09-30T20:42:25.798Z,16.57
2017-09-30T20:44:54.106Z,17.00
2017-09-30T20:47:22.435Z,16.10
2017-09-30T20:49:51.509Z,19.70
2017-09-30T20:52:19.870Z,20.43
2017-09-30T20:54:48.181Z,21.30
2017-09-30T20:57:17.259Z,23.00
2017-09-30T20:59:45.582Z,27.70
2017-09-30T21:02:13.905Z,28.90
2017-09-30T21:04:42.227Z,27.77
2017-09-30T21:07:10.551Z,30.70
2017-09-30T21:09:38.881Z,30.30
2017-09-30T21:12:07.949Z,30.60
2017-09-30T21:14:36.269Z,31.73
2017-09-30T21:17:04.582Z,32.47
2017-09-30T21:19:32.904Z,31.37
2017-09-30T21:22:01.226Z,33.70
2017-09-30T21:24:29.541Z,34.33
2017-09-30T21:26:58.618Z,35.13
2017-09-30T21:29:26.942Z,32.97
2017-09-30T21:31:55.249Z,31.40
2017-09-30T21:34:23.558Z,24.03
2017-09-30T21:36:51.874Z,16.43
2017-09-30T21:39:20.217Z,11.27
2017-09-30T21:41:49.297Z,11.10
2017-09-30T21:44:17.597Z,8.83
2017-09-30T21:46:46.683Z,7.93
2017-09-30T21:49:14.981Z,7.23
2017-09-30T21:51:43.300Z,7.97
2017-09-30T21:54:11.602Z,7.13
2017-09-30T21:56:39.915Z,5.17
2017-09-30T21:59:08.226Z,5.30
2017-09-30T22:01:36.541Z,5.07
2017-09-30T22:04:04.842Z,5.30
2017-09-30T22:06:33.161Z,4.47
2017-09-30T22:09:01.458Z,5.00
2017-09-30T22:11:29.801Z,5.33
2017-09-30T22:13:58.108Z,4.30
2017-09-30T22:16:26.418Z,4.47
2017-09-30T22:18:55.502Z,4.30
2017-09-30T22:21:23.807Z,4.20
2017-09-30T22:23:52.125Z,3.97
2017-09-30T22:26:20.433Z,5.20
2017-09-30T22:28:49.522Z,4.50
2017-09-30T22:31:17.833Z,4.10
2017-09-30T22:33:46.151Z,3.00
2017-09-30T22:36:14.453Z,4.07
2017-09-30T22:38:42.765Z,4.77
2017-09-30T22:41:11.071Z,5.50
2017-09-30T22:43:39.445Z,5.70
2017-09-30T22:46:07.747Z,5.60
2017-09-30T22:48:36.045Z,5.77
2017-09-30T22:51:04.352Z,5.80
2017-09-30T22:53:32.659Z,5.50
2017-09-30T22:56:00.979Z,6.50
2017-09-30T22:58:29.300Z,8.50
2017-09-30T23:00:58.429Z,8.63
2017-09-30T23:03:26.734Z,9.73
2017-09-30T23:05:55.851Z,10.30
2017-09-30T23:08:24.168Z,7.43
2017-09-30T23:10:52.466Z,8.20
2017-09-30T23:13:20.778Z,6.90
2017-09-30T23:15:49.098Z,7.00
2017-09-30T23:18:17.431Z,5.43
2017-09-30T23:20:46.489Z,4.87
2017-09-30T23:23:14.803Z,5.20
2017-09-30T23:25:43.867Z,5.80
2017-09-30T23:28:12.193Z,4.87
2017-09-30T23:30:40.507Z,4.20
2017-09-30T23:33:08.849Z,4.20
2017-09-30T23:35:37.148Z,4.17
2017-09-30T23:38:05.496Z,3.70
2017-09-30T23:40:33.799Z,4.53
2017-09-30T23:43:02.109Z,4.20
2017-09-30T23:45:30.420Z,3.77
2017-09-30T23:47:59.494Z,4.20
2017-09-30T23:50:27.804Z,3.70
2017-09-30T23:52:56.099Z,4.47
2017-09-30T23:55:24.422Z,3.50
2017-09-30T23:57:52.728Z,3.57
